Liaoyang, China
Current Conditions -  °F | °C
As of 10:00 AM on Monday 22 Dec 2014 (Local Time) from ZYTX Reporting Station
Clear Clear  
Wind Chill: 15°   Ceiling: Unl
Heat Index: 21°   Visibility: 5mi
Dew Point:   Wind: 4mph
Humidity: 46%   Direction: 190°S
Pressure: 30.15"   Gusts: NA
Location:  41.28°N, 123.18°E
Report Text: ZYTX 220200Z 19002MPS 8000 NSC M06/M16 Q1021 NOSIG
Loading
Personal Weather Stations






























Interactive Weather Map New forecast layout! Learn more

10-Day Weather Forecast

Advertisements
Track Severe Weather on mobile